Latest Coastal Weather Observations for Karratha

IDW60701

Issued at 1:03 am WST Thursday 30 March 2017 (issued every 10 minutes, with the page automatically refreshed every 10 minutes)

About coastal observations | Map of coastal stations | Coastal observations for WA | Marine services | Other Formats
Station Details ID: 004083 Name: KARRATHA AERO Lat: -20.71 Lon: 116.77 Height: 5.3 m
Data from the previous 72 hours. | See also: Recent months at Karratha
Date/Time
WST
Temp
°C
Wind Pressure Rain since
9am
mm
Weather Cloud Vis
km
Sea
Height
m
Swell
Dir  Spd
kts
Gust
kts
hPa Trend Height
m
Period
s
Dir
30/01:00am 27.9 ESE 8 11 1011.4 - 0.0 - Partly cloudy 10 - - - -
30/12:30am 28.1 E 11 14 1011.9 - 0.0 - Partly cloudy 10 - - - -
30/12:00am 27.9 E 10 13 1011.8 - 0.0 - Mostly cloudy 10 - - - -
 
Date/Time
WST
Temp
°C
Wind Pressure Rain since
9am
mm
Weather Cloud Vis
km
Sea
Height
m
Swell
Dir  Spd
kts
Gust
kts
hPa Trend Height
m
Period
s
Dir
29/11:30pm 27.8 ESE 7 9 1011.6 - 0.0 - - 10 - - - -
29/11:00pm 28.0 ESE 5 8 1011.5 - 0.0 - - 10 - - - -
29/10:30pm 27.9 ENE 5 7 1011.5 - 0.0 - - 10 - - - -
29/10:00pm 27.8 E 7 9 1011.2 - 0.0 - - 10 - - - -
29/09:30pm 28.1 E 8 10 1011.2 - 0.0 - - 10 - - - -
29/09:00pm 28.4 ESE 10 13 1011.1 - 0.0 - - 10 - - - -
29/08:30pm 28.6 E 11 14 1011.2 - 0.0 - - 10 - - - -
29/08:00pm 28.7 E 13 16 1011.1 - 0.0 - - 10 - - - -
29/07:30pm 28.8 ESE 10 13 1010.7 - 0.0 - - 10 - - - -
29/07:00pm 28.8 SE 11 15 1010.3 - 0.0 - Partly cloudy 10 - - - -
29/06:30pm 29.9 ENE 9 11 1010.1 - 0.0 - - 10 - - - -
29/06:00pm 30.0 NE 9 12 1009.4 - 0.0 - Mostly clear 10 - - - -
29/05:30pm 30.5 NE 10 13 1008.8 - 0.0 - Partly cloudy 10 - - - -
29/05:00pm 30.5 NE 12 15 1008.4 - 0.0 - Partly cloudy 10 - - - -
29/04:30pm 31.8 NE 13 17 1008.0 - 0.0 - - 10 - - - -
29/04:00pm 31.8 NE 14 17 1008.1 - 0.0 - - 10 - - - -
29/03:30pm 31.8 NE 16 21 1008.0 - 0.0 - - 10 - - - -
29/03:00pm 32.1 NE 16 19 1008.0 - 0.0 - Partly cloudy 10 - - - -
29/02:30pm 31.5 NE 15 19 1008.2 - 0.0 - Partly cloudy 10 - - - -
29/02:00pm 31.7 NE 15 19 1008.5 - 0.0 - Partly cloudy 10 - - - -
29/01:30pm 32.3 ENE 13 17 1008.7 - 0.0 - Partly cloudy 10 - - - -
29/01:00pm 32.8 ENE 17 21 1008.7 - 0.0 - Partly cloudy 10 - - - -
29/12:30pm 31.9 ENE 17 20 1008.9 - 0.0 - Partly cloudy 10 - - - -
29/12:00pm 32.2 ENE 15 18 1009.5 - 0.0 - - 10 - - - -
29/11:30am 31.6 ENE 17 21 1009.8 - 0.0 - - 10 - - - -
29/11:00am 32.4 ENE 15 18 1010.0 - 0.0 - Partly cloudy 10 - - - -
29/10:30am 31.6 E 16 21 1010.2 - 0.0 - Partly cloudy 10 - - - -
29/10:00am 31.3 E 17 19 1010.2 - 0.0 - - 10 - - - -
29/09:30am 30.8 E 15 19 1010.3 - 0.0 - - 10 - - - -
29/09:00am 30.1 E 15 21 1010.2 - 0.0 - - 10 - - - -
29/08:30am 29.5 E 14 17 1010.4 - 0.0 - Partly cloudy 10 - - - -
29/08:00am 28.7 E 9 12 1010.1 - 0.0 - - 10 - - - -
29/07:30am 27.2 E 9 11 1009.7 - 0.0 - - 10 - - - -
29/07:00am 26.9 E 7 11 1009.3 - 0.0 - - 10 - - - -
29/06:30am 26.7 ESE 9 11 1009.0 - 0.0 - - 10 - - - -
29/06:00am 26.4 ESE 7 9 1008.8 - 0.0 - Cloudy 10 - - - -
29/05:30am 25.9 SSE 5 7 1008.4 - 0.0 - - 10 - - - -
29/05:00am 25.7 SSE 6 6 1008.3 - 0.0 - - 10 - - - -
29/04:30am 25.3 S 6 8 1008.0 - 0.0 - Partly cloudy 10 - - - -
29/04:00am 25.4 SE 5 7 1008.1 - 0.0 - - 10 - - - -
29/03:30am 25.4 SSE 8 11 1008.2 - 0.0 - Partly cloudy 10 - - - -
29/03:00am 26.4 ESE 15 23 1009.0 - 0.0 - Cloudy 10 - - - -
29/02:52am 27.0 ESE 15 23 1009.1 - 0.0 - Partly cloudy 10 - - - -
29/02:30am 27.2 SE 9 11 1009.7 - 0.0 - Partly cloudy 10 - - - -
29/02:00am 27.1 SSW 6 7 1008.8 - 0.0 - Partly cloudy 10 - - - -
29/01:30am 27.0 SSW 7 11 1008.9 - 0.0 - Partly cloudy 10 - - - -
29/01:00am 27.5 SSW 12 16 1009.3 - 0.0 - Partly cloudy 10 - - - -
29/12:30am 27.3 SSW 9 11 1009.7 - 0.0 - Partly cloudy 10 - - - -
29/12:00am 27.1 SW 10 12 1009.6 - 0.0 - Partly cloudy 10 - - - -
 
Date/Time
WST
Temp
°C
Wind Pressure Rain since
9am
mm
Weather Cloud Vis
km
Sea
Height
m
Swell
Dir  Spd
kts
Gust
kts
hPa Trend Height
m
Period
s
Dir
28/11:30pm 27.3 SW 8 10 1009.7 - 0.0 - - 10 - - - -
28/11:00pm 27.6 SW 10 12 1009.9 - 0.0 - - 10 - - - -
28/10:30pm 29.4 WSW 12 15 1009.8 - 0.0 - - 10 - - - -
28/10:00pm 30.1 WSW 10 13 1009.6 - 0.0 - Partly cloudy 10 - - - -
28/09:30pm 30.1 WSW 10 12 1009.6 - 0.0 - Partly cloudy 10 - - - -
28/09:00pm 30.1 W 9 11 1009.4 - 0.0 - Mostly clear 10 - - - -
28/08:30pm 30.1 WNW 8 11 1009.3 - 0.0 - - 10 - - - -
28/08:00pm 30.0 NW 8 11 1008.3 - 0.0 - - 10 - - - -
28/07:30pm 29.9 NW 9 11 1008.1 - 0.0 - - 10 - - - -
28/07:00pm 30.2 NW 9 13 1007.9 - 0.0 - - 10 - - - -
28/06:30pm 30.1 NNW 9 12 1007.4 - 0.0 - - 10 - - - -
28/06:00pm 30.7 NNW 9 11 1006.9 - 0.0 - - 10 - - - -
28/05:30pm 31.5 NNW 8 12 1006.9 - 0.0 - - 10 - - - -
28/05:00pm 32.2 NNW 8 11 1007.2 - 0.0 - - 10 - - - -
28/04:30pm 32.1 N 7 9 1007.3 - 0.0 - - 10 - - - -
28/04:00pm 31.9 NNE 8 11 1007.4 - 0.0 - - 10 - - - -
28/03:30pm 32.2 NNE 7 9 1007.6 - 0.0 - - 10 - - - -
28/03:00pm 31.7 NNE 7 10 1007.8 - 0.0 - - 10 - - - -
28/02:30pm 32.8 NE 11 14 1008.2 - 0.0 - - 10 - - - -
28/02:00pm 32.4 NE 10 13 1008.3 - 0.0 - - 10 - - - -
28/01:30pm 31.9 NE 11 14 1008.8 - 0.0 - - 10 - - - -
28/01:00pm 32.0 NE 13 16 1009.2 - 0.0 - - 10 - - - -
28/12:30pm 31.8 NE 13 18 1009.6 - 0.0 - - 10 - - - -
28/12:00pm 32.6 ENE 15 19 1010.0 - 0.0 - - 10 - - - -
28/11:30am 32.0 ENE 17 21 1010.3 - 0.0 - - 10 - - - -
28/11:00am 32.4 ENE 15 19 1010.6 - 0.0 - - 10 - - - -
28/10:30am 31.9 ENE 15 19 1010.8 - 0.0 - - 10 - - - -
28/10:00am 31.6 ENE 14 19 1011.0 - 0.0 - - 10 - - - -
28/09:30am 31.5 E 14 19 1011.2 - 0.0 - - 10 - - - -
28/09:00am 31.3 E 14 18 1011.1 - 0.0 - - 10 - - - -
28/08:30am 31.2 E 12 15 1010.8 - 0.0 - - 10 - - - -
28/08:00am 30.1 E 7 9 1010.5 - 0.0 - - 10 - - - -
28/07:30am 29.2 E 4 7 1010.2 - 0.0 - - 10 - - - -
28/07:00am 27.4 CALM 0 0 1009.8 - 0.0 - - 10 - - - -
28/06:30am 27.0 SE 3 4 1009.7 - 0.0 - - 10 - - - -
28/06:00am 26.9 SE 5 6 1010.0 - 0.0 - - 10 - - - -
28/05:30am 27.1 ESE 6 9 1009.8 - 0.0 - Partly cloudy 10 - - - -
28/05:00am 27.3 ESE 6 8 1009.6 - 0.0 - Partly cloudy 10 - - - -
28/04:30am 26.7 CALM 0 2 1009.5 - 0.0 - Partly cloudy 10 - - - -
28/04:00am 26.5 SE 3 6 1009.2 - 0.0 - - 10 - - - -
28/03:30am 26.6 SSE 1 4 1009.1 - 0.0 - - 10 - - - -
28/03:00am 27.2 SSW 3 3 1009.3 - 0.0 - - 10 - - - -
28/02:30am 27.2 ESE 3 4 1009.4 - 0.0 - - 10 - - - -
28/02:00am 27.2 E 3 5 1009.4 - 0.0 - - 10 - - - -
28/01:30am 27.6 ESE 5 6 1009.7 - 0.0 - - 10 - - - -
28/01:00am 27.5 ENE 2 4 1009.6 - 0.0 - - 10 - - - -
28/12:30am 27.5 SSE 4 5 1010.1 - 0.0 - - 10 - - - -
28/12:00am 27.6 SE 7 8 1010.5 - 0.0 - Partly cloudy 10 - - - -
 
Date/Time
WST
Temp
°C
Wind Pressure Rain since
9am
mm
Weather Cloud Vis
km
Sea
Height
m
Swell
Dir  Spd
kts
Gust
kts
hPa Trend Height
m
Period
s
Dir
27/11:30pm 27.6 SSE 3 4 1010.3 - 0.0 - - 10 - - - -
27/11:00pm 28.0 SE 5 7 1010.6 - 0.0 - - 10 - - - -
27/10:30pm 28.2 ESE 6 8 1010.7 - 0.0 - - 10 - - - -
27/10:00pm 28.3 SE 6 7 1010.6 - 0.0 - - 10 - - - -
27/09:30pm 28.5 ESE 4 5 1010.5 - 0.0 - - 10 - - - -
27/09:00pm 28.6 SSE 3 4 1010.6 - 0.0 - - 10 - - - -
27/08:30pm 28.7 SSE 6 7 1010.4 - 0.0 - - 10 - - - -
27/08:00pm 29.0 SE 5 7 1010.2 - 0.0 - - 10 - - - -
27/07:30pm 29.2 ESE 9 10 1008.9 - 0.0 - - 10 - - - -
27/07:00pm 29.3 SE 8 9 1008.7 - 0.0 - - 10 - - - -
27/06:30pm 29.8 E 10 13 1008.7 - 0.0 - - 10 - - - -
27/06:00pm 30.0 E 12 16 1009.1 - 0.0 - Mostly clear 10 - - - -
27/05:30pm 30.6 E 15 19 1009.0 - 0.0 - - 10 - - - -
27/05:00pm 30.7 E 16 20 1007.9 - 0.0 - - 10 - - - -
27/04:30pm 30.3 ENE 18 23 1007.9 - 0.0 - - 10 - - - -
27/04:00pm 30.1 ENE 19 23 1007.6 - 0.0 - Partly cloudy 10 - - - -
27/03:51pm 29.5 ENE 26 36 1008.2 - 0.0 - Partly cloudy 10 - - - -
27/03:44pm 30.2 ENE 29 38 1008.5 - 0.0 - Partly cloudy 10 - - - -
27/03:31pm 31.9 ENE 20 35 1008.5 - 0.0 - Partly cloudy 10 - - - -
27/03:30pm 33.3 ENE 19 26 1008.4 - 0.0 - Partly cloudy 10 - - - -
27/03:00pm 33.7 NE 15 19 1008.1 - 0.0 - - 10 - - - -
27/02:30pm 33.5 NE 12 16 1007.8 - 0.0 - - 10 - - - -
27/02:00pm 33.9 NE 11 15 1008.0 - 0.0 - - 10 - - - -
27/01:30pm 34.2 NE 11 14 1008.0 - 0.0 - - 10 - - - -
27/01:00pm 34.8 NNE 11 15 1008.5 - 0.0 - - 10 - - - -
27/12:30pm 34.8 NE 11 13 1009.1 - 0.0 - - 10 - - - -
27/12:00pm 33.8 NNE 11 15 1009.5 - 0.0 - - 10 - - - -
27/11:30am 33.8 NE 11 14 1009.8 - 0.0 - - 10 - - - -
27/11:00am 34.5 NE 10 13 1009.8 - 0.0 - - 10 - - - -
27/10:30am 33.5 NE 9 12 1010.1 - 0.0 - - 10 - - - -
27/10:00am 33.2 NE 9 11 1010.2 - 0.0 - Partly cloudy 10 - - - -
27/09:30am 32.8 ENE 9 11 1010.1 - 0.0 - Partly cloudy 10 - - - -
27/09:00am 33.4 E 7 10 1010.0 - 0.0 - Mostly clear 10 - - - -
27/08:30am 32.7 SSE 5 8 1009.6 - 0.0 - - 10 - - - -
27/08:00am 31.4 SSW 6 7 1009.2 - 0.0 - - 10 - - - -
27/07:30am 30.1 SSW 6 7 1008.9 - 0.0 - - 10 - - - -
27/07:00am 28.5 SW 3 4 1008.5 - 0.0 - - 10 - - - -
27/06:30am 27.7 SSW 6 6 1008.1 - 0.0 - - 10 - - - -
27/06:00am 27.5 SSW 5 6 1008.0 - 0.0 - - 10 - - - -
27/05:30am 27.7 SSW 4 4 1007.9 - 0.0 - - 10 - - - -
27/05:00am 27.7 SSW 4 4 1007.7 - 0.0 - - 10 - - - -
27/04:30am 27.6 SW 4 5 1007.8 - 0.0 - - 10 - - - -
27/04:00am 27.7 SW 5 6 1007.7 - 0.0 - - 10 - - - -
27/03:30am 27.5 SSW 5 7 1007.7 - 0.0 - - 10 - - - -
27/03:00am 28.6 WSW 5 6 1008.2 - 0.0 - - 10 - - - -
27/02:30am 28.4 WSW 5 5 1008.4 - 0.0 - - 10 - - - -
27/02:00am 28.2 SW 5 6 1008.6 - 0.0 - - 10 - - - -
27/01:30am 28.3 SW 6 7 1008.7 - 0.0 - - 10 - - - -

Other Formats:

Comma delimited format used in spreadsheet applications
http://www.bom.gov.au/fwo/IDW60701/IDW60701.95307.axf

JavaScript Object Notation format (JSON) in row-major order
http://www.bom.gov.au/fwo/IDW60701/IDW60701.95307.json